sensor_id;sensor_type;location;lat;lon;timestamp;temperature;humidity
61765;DHT22;50188;48.114;-1.388;2022-08-19T00:01:27;20.00;85.00
61765;DHT22;50188;48.114;-1.388;2022-08-19T00:03:55;19.90;85.00
61765;DHT22;50188;48.114;-1.388;2022-08-19T00:06:21;20.00;84.90
61765;DHT22;50188;48.114;-1.388;2022-08-19T00:08:47;19.90;84.80
61765;DHT22;50188;48.114;-1.388;2022-08-19T00:11:13;20.00;84.70
61765;DHT22;50188;48.114;-1.388;2022-08-19T00:13:44;20.00;84.50
61765;DHT22;50188;48.114;-1.388;2022-08-19T00:16:14;20.00;84.20
61765;DHT22;50188;48.114;-1.388;2022-08-19T00:18:40;20.00;84.00
61765;DHT22;50188;48.114;-1.388;2022-08-19T00:21:05;19.90;84.10
61765;DHT22;50188;48.114;-1.388;2022-08-19T00:23:34;19.90;83.90
61765;DHT22;50188;48.114;-1.388;2022-08-19T00:26:02;19.90;84.20
61765;DHT22;50188;48.114;-1.388;2022-08-19T00:28:28;19.90;84.20
61765;DHT22;50188;48.114;-1.388;2022-08-19T00:30:53;20.00;84.10
61765;DHT22;50188;48.114;-1.388;2022-08-19T00:33:19;19.90;84.00
61765;DHT22;50188;48.114;-1.388;2022-08-19T00:35:45;20.00;84.00
61765;DHT22;50188;48.114;-1.388;2022-08-19T00:38:11;19.90;83.80
61765;DHT22;50188;48.114;-1.388;2022-08-19T00:40:36;19.90;83.90
61765;DHT22;50188;48.114;-1.388;2022-08-19T00:43:09;19.90;84.00
61765;DHT22;50188;48.114;-1.388;2022-08-19T00:45:35;19.90;84.30
61765;DHT22;50188;48.114;-1.388;2022-08-19T00:48:02;19.90;84.00
61765;DHT22;50188;48.114;-1.388;2022-08-19T00:50:31;19.90;84.00
61765;DHT22;50188;48.114;-1.388;2022-08-19T00:52:58;19.80;83.80
61765;DHT22;50188;48.114;-1.388;2022-08-19T00:55:26;19.80;83.60
61765;DHT22;50188;48.114;-1.388;2022-08-19T00:58:01;19.80;84.00
61765;DHT22;50188;48.114;-1.388;2022-08-19T01:00:29;19.80;84.20
61765;DHT22;50188;48.114;-1.388;2022-08-19T01:02:55;19.80;84.00
61765;DHT22;50188;48.114;-1.388;2022-08-19T01:05:24;19.70;84.50
61765;DHT22;50188;48.114;-1.388;2022-08-19T01:07:54;19.70;84.20
61765;DHT22;50188;48.114;-1.388;2022-08-19T01:10:23;19.80;84.60
61765;DHT22;50188;48.114;-1.388;2022-08-19T01:12:50;19.80;84.60
61765;DHT22;50188;48.114;-1.388;2022-08-19T01:15:20;19.90;84.30
61765;DHT22;50188;48.114;-1.388;2022-08-19T01:17:47;19.90;84.70
61765;DHT22;50188;48.114;-1.388;2022-08-19T01:20:17;20.00;84.10
61765;DHT22;50188;48.114;-1.388;2022-08-19T01:22:51;20.00;84.10
61765;DHT22;50188;48.114;-1.388;2022-08-19T01:25:20;20.10;84.20
61765;DHT22;50188;48.114;-1.388;2022-08-19T01:27:49;20.00;83.30
61765;DHT22;50188;48.114;-1.388;2022-08-19T01:30:22;19.90;83.80
61765;DHT22;50188;48.114;-1.388;2022-08-19T01:32:49;20.00;83.70
61765;DHT22;50188;48.114;-1.388;2022-08-19T01:35:15;20.00;83.60
61765;DHT22;50188;48.114;-1.388;2022-08-19T01:37:50;20.10;83.30
61765;DHT22;50188;48.114;-1.388;2022-08-19T01:40:18;20.00;83.10
61765;DHT22;50188;48.114;-1.388;2022-08-19T01:42:50;20.10;82.80
61765;DHT22;50188;48.114;-1.388;2022-08-19T01:45:22;20.10;82.90
61765;DHT22;50188;48.114;-1.388;2022-08-19T01:47:51;20.10;84.10
61765;DHT22;50188;48.114;-1.388;2022-08-19T01:50:16;20.00;83.40
61765;DHT22;50188;48.114;-1.388;2022-08-19T01:52:44;20.00;83.80
61765;DHT22;50188;48.114;-1.388;2022-08-19T01:55:14;20.00;83.70
61765;DHT22;50188;48.114;-1.388;2022-08-19T01:57:44;20.00;83.60
61765;DHT22;50188;48.114;-1.388;2022-08-19T02:00:13;20.00;83.90
61765;DHT22;50188;48.114;-1.388;2022-08-19T02:02:41;19.90;84.10
61765;DHT22;50188;48.114;-1.388;2022-08-19T02:05:07;20.00;84.30
61765;DHT22;50188;48.114;-1.388;2022-08-19T02:07:34;20.10;84.10
61765;DHT22;50188;48.114;-1.388;2022-08-19T02:10:05;20.00;84.30
61765;DHT22;50188;48.114;-1.388;2022-08-19T02:12:31;20.10;84.20
61765;DHT22;50188;48.114;-1.388;2022-08-19T02:15:03;20.10;84.30
61765;DHT22;50188;48.114;-1.388;2022-08-19T02:17:29;20.00;84.80
61765;DHT22;50188;48.114;-1.388;2022-08-19T02:19:56;20.00;84.60
61765;DHT22;50188;48.114;-1.388;2022-08-19T02:22:22;20.10;84.70
61765;DHT22;50188;48.114;-1.388;2022-08-19T02:24:49;20.10;84.60
61765;DHT22;50188;48.114;-1.388;2022-08-19T02:27:15;20.10;84.70
61765;DHT22;50188;48.114;-1.388;2022-08-19T02:29:42;20.10;84.50
61765;DHT22;50188;48.114;-1.388;2022-08-19T02:32:08;20.10;84.60
61765;DHT22;50188;48.114;-1.388;2022-08-19T02:34:37;20.10;84.70
61765;DHT22;50188;48.114;-1.388;2022-08-19T02:37:03;20.00;85.00
61765;DHT22;50188;48.114;-1.388;2022-08-19T02:39:28;20.00;85.40
61765;DHT22;50188;48.114;-1.388;2022-08-19T02:41:54;20.00;85.50
61765;DHT22;50188;48.114;-1.388;2022-08-19T02:44:20;20.00;85.60
61765;DHT22;50188;48.114;-1.388;2022-08-19T02:46:47;20.00;85.90
61765;DHT22;50188;48.114;-1.388;2022-08-19T02:49:13;20.10;85.80
61765;DHT22;50188;48.114;-1.388;2022-08-19T02:51:43;20.10;85.80
61765;DHT22;50188;48.114;-1.388;2022-08-19T02:54:10;20.10;86.10
61765;DHT22;50188;48.114;-1.388;2022-08-19T02:56:38;20.10;86.30
61765;DHT22;50188;48.114;-1.388;2022-08-19T02:59:05;20.10;86.30
61765;DHT22;50188;48.114;-1.388;2022-08-19T03:01:33;20.10;86.10
61765;DHT22;50188;48.114;-1.388;2022-08-19T03:04:04;20.20;86.30
61765;DHT22;50188;48.114;-1.388;2022-08-19T03:06:31;20.10;86.50
61765;DHT22;50188;48.114;-1.388;2022-08-19T03:08:58;20.10;86.60
61765;DHT22;50188;48.114;-1.388;2022-08-19T03:11:27;20.10;86.80
61765;DHT22;50188;48.114;-1.388;2022-08-19T03:13:53;20.10;87.30
61765;DHT22;50188;48.114;-1.388;2022-08-19T03:16:21;20.10;87.20
61765;DHT22;50188;48.114;-1.388;2022-08-19T03:18:48;20.10;87.30
61765;DHT22;50188;48.114;-1.388;2022-08-19T03:21:18;20.00;87.60
61765;DHT22;50188;48.114;-1.388;2022-08-19T03:26:50;20.10;88.10
61765;DHT22;50188;48.114;-1.388;2022-08-19T03:29:17;20.10;88.10
61765;DHT22;50188;48.114;-1.388;2022-08-19T03:31:43;20.00;88.40
61765;DHT22;50188;48.114;-1.388;2022-08-19T03:34:22;20.10;88.50
61765;DHT22;50188;48.114;-1.388;2022-08-19T03:36:51;20.10;88.30
61765;DHT22;50188;48.114;-1.388;2022-08-19T03:39:18;20.20;88.20
61765;DHT22;50188;48.114;-1.388;2022-08-19T03:41:45;20.10;88.80
61765;DHT22;50188;48.114;-1.388;2022-08-19T03:44:17;20.10;88.90
61765;DHT22;50188;48.114;-1.388;2022-08-19T03:46:48;20.10;88.70
61765;DHT22;50188;48.114;-1.388;2022-08-19T03:49:15;20.20;88.80
61765;DHT22;50188;48.114;-1.388;2022-08-19T03:51:42;20.20;88.80
61765;DHT22;50188;48.114;-1.388;2022-08-19T03:54:10;20.20;89.30
61765;DHT22;50188;48.114;-1.388;2022-08-19T03:56:38;20.20;89.10
61765;DHT22;50188;48.114;-1.388;2022-08-19T03:59:06;20.30;89.40
61765;DHT22;50188;48.114;-1.388;2022-08-19T04:01:32;20.30;89.20
61765;DHT22;50188;48.114;-1.388;2022-08-19T04:03:59;20.30;89.40
61765;DHT22;50188;48.114;-1.388;2022-08-19T04:06:28;20.30;89.50
61765;DHT22;50188;48.114;-1.388;2022-08-19T04:08:55;20.30;90.20
61765;DHT22;50188;48.114;-1.388;2022-08-19T04:11:31;20.30;89.60
61765;DHT22;50188;48.114;-1.388;2022-08-19T04:14:18;20.30;89.60
61765;DHT22;50188;48.114;-1.388;2022-08-19T04:16:46;20.30;89.90
61765;DHT22;50188;48.114;-1.388;2022-08-19T04:19:12;20.30;89.70
61765;DHT22;50188;48.114;-1.388;2022-08-19T04:21:39;20.20;90.10
61765;DHT22;50188;48.114;-1.388;2022-08-19T04:24:06;20.20;90.00
61765;DHT22;50188;48.114;-1.388;2022-08-19T04:26:34;20.20;90.00
61765;DHT22;50188;48.114;-1.388;2022-08-19T04:29:03;20.30;90.10
61765;DHT22;50188;48.114;-1.388;2022-08-19T04:31:31;20.30;90.00
61765;DHT22;50188;48.114;-1.388;2022-08-19T04:34:03;20.20;90.20
61765;DHT22;50188;48.114;-1.388;2022-08-19T04:36:32;20.20;90.20
61765;DHT22;50188;48.114;-1.388;2022-08-19T04:39:18;20.20;90.30
61765;DHT22;50188;48.114;-1.388;2022-08-19T04:41:45;20.30;90.40
61765;DHT22;50188;48.114;-1.388;2022-08-19T04:44:33;20.30;90.20
61765;DHT22;50188;48.114;-1.388;2022-08-19T04:46:59;20.30;90.40
61765;DHT22;50188;48.114;-1.388;2022-08-19T04:49:25;20.30;90.40
61765;DHT22;50188;48.114;-1.388;2022-08-19T04:51:59;20.30;90.30
61765;DHT22;50188;48.114;-1.388;2022-08-19T04:54:25;20.20;90.40
61765;DHT22;50188;48.114;-1.388;2022-08-19T04:56:53;20.30;90.40
61765;DHT22;50188;48.114;-1.388;2022-08-19T05:02:13;20.20;90.50
61765;DHT22;50188;48.114;-1.388;2022-08-19T05:04:41;20.20;90.60
61765;DHT22;50188;48.114;-1.388;2022-08-19T05:07:08;20.30;90.60
61765;DHT22;50188;48.114;-1.388;2022-08-19T05:09:34;20.30;90.60
61765;DHT22;50188;48.114;-1.388;2022-08-19T05:12:00;20.30;90.60
61765;DHT22;50188;48.114;-1.388;2022-08-19T05:14:26;20.30;90.50
61765;DHT22;50188;48.114;-1.388;2022-08-19T05:16:52;20.40;90.60
61765;DHT22;50188;48.114;-1.388;2022-08-19T05:19:17;20.40;90.60
61765;DHT22;50188;48.114;-1.388;2022-08-19T05:22:03;20.40;90.60
61765;DHT22;50188;48.114;-1.388;2022-08-19T05:24:49;20.40;90.60
61765;DHT22;50188;48.114;-1.388;2022-08-19T05:27:15;20.40;90.60
61765;DHT22;50188;48.114;-1.388;2022-08-19T05:29:41;20.40;90.50
61765;DHT22;50188;48.114;-1.388;2022-08-19T05:32:07;20.50;90.50
61765;DHT22;50188;48.114;-1.388;2022-08-19T05:34:34;20.50;90.50
61765;DHT22;50188;48.114;-1.388;2022-08-19T05:37:01;20.50;90.90
61765;DHT22;50188;48.114;-1.388;2022-08-19T05:39:29;20.50;90.40
61765;DHT22;50188;48.114;-1.388;2022-08-19T05:41:58;20.50;90.50
61765;DHT22;50188;48.114;-1.388;2022-08-19T05:44:27;20.50;90.60
61765;DHT22;50188;48.114;-1.388;2022-08-19T05:46:55;20.60;90.50
61765;DHT22;50188;48.114;-1.388;2022-08-19T05:49:22;20.60;90.60
61765;DHT22;50188;48.114;-1.388;2022-08-19T05:51:49;20.60;90.50
61765;DHT22;50188;48.114;-1.388;2022-08-19T05:54:15;20.60;90.70
61765;DHT22;50188;48.114;-1.388;2022-08-19T05:56:42;20.60;90.70
61765;DHT22;50188;48.114;-1.388;2022-08-19T05:59:10;20.60;90.70
61765;DHT22;50188;48.114;-1.388;2022-08-19T06:01:42;20.60;90.70
61765;DHT22;50188;48.114;-1.388;2022-08-19T06:04:08;20.60;90.70
61765;DHT22;50188;48.114;-1.388;2022-08-19T06:06:35;20.60;90.90
61765;DHT22;50188;48.114;-1.388;2022-08-19T06:09:03;20.60;90.70
61765;DHT22;50188;48.114;-1.388;2022-08-19T06:11:37;20.60;90.80
61765;DHT22;50188;48.114;-1.388;2022-08-19T06:14:06;20.60;90.90
61765;DHT22;50188;48.114;-1.388;2022-08-19T06:16:35;20.60;90.90
61765;DHT22;50188;48.114;-1.388;2022-08-19T06:19:05;20.60;90.80
61765;DHT22;50188;48.114;-1.388;2022-08-19T06:21:33;20.60;90.80
61765;DHT22;50188;48.114;-1.388;2022-08-19T06:23:59;20.60;90.80
61765;DHT22;50188;48.114;-1.388;2022-08-19T06:26:26;20.60;90.90
61765;DHT22;50188;48.114;-1.388;2022-08-19T06:28:52;20.70;90.90
61765;DHT22;50188;48.114;-1.388;2022-08-19T06:31:21;20.60;91.00
61765;DHT22;50188;48.114;-1.388;2022-08-19T06:33:47;20.60;91.00
61765;DHT22;50188;48.114;-1.388;2022-08-19T06:36:19;20.70;91.10
61765;DHT22;50188;48.114;-1.388;2022-08-19T06:38:45;20.60;90.90
61765;DHT22;50188;48.114;-1.388;2022-08-19T06:41:11;20.70;90.90
61765;DHT22;50188;48.114;-1.388;2022-08-19T06:43:37;20.70;91.00
61765;DHT22;50188;48.114;-1.388;2022-08-19T06:46:03;20.70;91.40
61765;DHT22;50188;48.114;-1.388;2022-08-19T06:48:30;20.70;90.90
61765;DHT22;50188;48.114;-1.388;2022-08-19T06:50:56;20.80;91.00
61765;DHT22;50188;48.114;-1.388;2022-08-19T06:53:22;20.80;91.00
61765;DHT22;50188;48.114;-1.388;2022-08-19T06:55:48;20.80;91.00
61765;DHT22;50188;48.114;-1.388;2022-08-19T06:58:26;20.80;91.10
61765;DHT22;50188;48.114;-1.388;2022-08-19T07:00:51;20.80;91.10
61765;DHT22;50188;48.114;-1.388;2022-08-19T07:03:17;20.90;91.10
61765;DHT22;50188;48.114;-1.388;2022-08-19T07:05:43;20.90;91.20
61765;DHT22;50188;48.114;-1.388;2022-08-19T07:08:09;21.00;91.10
61765;DHT22;50188;48.114;-1.388;2022-08-19T07:10:35;21.00;91.00
61765;DHT22;50188;48.114;-1.388;2022-08-19T07:13:02;21.10;90.90
61765;DHT22;50188;48.114;-1.388;2022-08-19T07:15:29;21.00;91.00
61765;DHT22;50188;48.114;-1.388;2022-08-19T07:17:55;21.10;91.20
61765;DHT22;50188;48.114;-1.388;2022-08-19T07:20:20;21.10;91.20
61765;DHT22;50188;48.114;-1.388;2022-08-19T07:22:46;21.20;91.10
61765;DHT22;50188;48.114;-1.388;2022-08-19T07:25:12;21.20;90.90
61765;DHT22;50188;48.114;-1.388;2022-08-19T07:27:38;21.20;90.80
61765;DHT22;50188;48.114;-1.388;2022-08-19T07:30:05;21.20;90.80
61765;DHT22;50188;48.114;-1.388;2022-08-19T07:32:31;21.10;90.60
61765;DHT22;50188;48.114;-1.388;2022-08-19T07:34:57;21.10;90.60
61765;DHT22;50188;48.114;-1.388;2022-08-19T07:37:23;21.20;90.70
61765;DHT22;50188;48.114;-1.388;2022-08-19T07:39:51;21.20;90.90
61765;DHT22;50188;48.114;-1.388;2022-08-19T07:42:17;21.30;90.50
61765;DHT22;50188;48.114;-1.388;2022-08-19T07:44:46;21.30;90.50
61765;DHT22;50188;48.114;-1.388;2022-08-19T07:47:11;21.30;90.50
61765;DHT22;50188;48.114;-1.388;2022-08-19T07:49:38;21.30;90.50
61765;DHT22;50188;48.114;-1.388;2022-08-19T07:52:06;21.40;90.10
61765;DHT22;50188;48.114;-1.388;2022-08-19T07:54:34;21.50;90.10
61765;DHT22;50188;48.114;-1.388;2022-08-19T07:57:01;21.60;90.00
61765;DHT22;50188;48.114;-1.388;2022-08-19T07:59:28;21.60;89.50
61765;DHT22;50188;48.114;-1.388;2022-08-19T08:01:55;21.60;89.50
61765;DHT22;50188;48.114;-1.388;2022-08-19T08:04:21;21.70;89.30
61765;DHT22;50188;48.114;-1.388;2022-08-19T08:07:07;21.70;89.20
61765;DHT22;50188;48.114;-1.388;2022-08-19T08:09:53;21.70;89.80
61765;DHT22;50188;48.114;-1.388;2022-08-19T08:12:25;21.80;89.00
61765;DHT22;50188;48.114;-1.388;2022-08-19T08:14:58;21.90;88.70
61765;DHT22;50188;48.114;-1.388;2022-08-19T08:17:26;22.00;87.90
61765;DHT22;50188;48.114;-1.388;2022-08-19T08:19:53;22.10;87.40
61765;DHT22;50188;48.114;-1.388;2022-08-19T08:22:21;22.00;87.00
61765;DHT22;50188;48.114;-1.388;2022-08-19T08:25:14;22.00;86.90
61765;DHT22;50188;48.114;-1.388;2022-08-19T08:27:42;22.10;86.90
61765;DHT22;50188;48.114;-1.388;2022-08-19T08:30:11;22.20;86.60
61765;DHT22;50188;48.114;-1.388;2022-08-19T08:32:38;22.30;86.20
61765;DHT22;50188;48.114;-1.388;2022-08-19T08:35:11;22.30;85.90
61765;DHT22;50188;48.114;-1.388;2022-08-19T08:37:41;22.40;85.60
61765;DHT22;50188;48.114;-1.388;2022-08-19T08:40:18;22.40;86.30
61765;DHT22;50188;48.114;-1.388;2022-08-19T08:43:07;22.60;85.50
61765;DHT22;50188;48.114;-1.388;2022-08-19T08:45:41;22.70;85.50
61765;DHT22;50188;48.114;-1.388;2022-08-19T08:48:23;22.70;84.80
61765;DHT22;50188;48.114;-1.388;2022-08-19T08:50:51;22.90;84.00
61765;DHT22;50188;48.114;-1.388;2022-08-19T08:53:20;23.00;83.30
61765;DHT22;50188;48.114;-1.388;2022-08-19T08:55:50;23.00;82.60
61765;DHT22;50188;48.114;-1.388;2022-08-19T08:58:26;23.20;82.00
61765;DHT22;50188;48.114;-1.388;2022-08-19T09:00:54;23.40;81.40
61765;DHT22;50188;48.114;-1.388;2022-08-19T09:03:23;23.60;81.10
61765;DHT22;50188;48.114;-1.388;2022-08-19T09:06:03;23.80;80.10
61765;DHT22;50188;48.114;-1.388;2022-08-19T09:11:41;23.90;79.30
61765;DHT22;50188;48.114;-1.388;2022-08-19T09:14:32;23.80;79.00
61765;DHT22;50188;48.114;-1.388;2022-08-19T09:19:49;24.40;77.70
61765;DHT22;50188;48.114;-1.388;2022-08-19T09:22:15;24.90;76.50
61765;DHT22;50188;48.114;-1.388;2022-08-19T09:24:41;24.90;75.10
61765;DHT22;50188;48.114;-1.388;2022-08-19T09:27:07;25.00;74.50
61765;DHT22;50188;48.114;-1.388;2022-08-19T09:29:34;25.50;73.60
61765;DHT22;50188;48.114;-1.388;2022-08-19T09:31:59;26.30;72.00
61765;DHT22;50188;48.114;-1.388;2022-08-19T09:34:28;26.80;69.70
61765;DHT22;50188;48.114;-1.388;2022-08-19T09:36:54;26.60;69.00
61765;DHT22;50188;48.114;-1.388;2022-08-19T09:39:23;26.60;68.90
61765;DHT22;50188;48.114;-1.388;2022-08-19T09:41:57;26.50;69.30
61765;DHT22;50188;48.114;-1.388;2022-08-19T09:44:23;26.50;68.80
61765;DHT22;50188;48.114;-1.388;2022-08-19T09:46:49;26.50;69.40
61765;DHT22;50188;48.114;-1.388;2022-08-19T09:49:18;26.50;68.80
61765;DHT22;50188;48.114;-1.388;2022-08-19T09:51:45;26.30;68.20
61765;DHT22;50188;48.114;-1.388;2022-08-19T09:54:14;26.10;68.80
61765;DHT22;50188;48.114;-1.388;2022-08-19T09:56:40;25.90;68.70
61765;DHT22;50188;48.114;-1.388;2022-08-19T09:59:06;25.70;68.50
61765;DHT22;50188;48.114;-1.388;2022-08-19T10:01:32;25.20;69.50
61765;DHT22;50188;48.114;-1.388;2022-08-19T10:04:00;25.20;70.50
61765;DHT22;50188;48.114;-1.388;2022-08-19T10:06:29;25.20;70.80
61765;DHT22;50188;48.114;-1.388;2022-08-19T10:08:59;25.20;71.50
61765;DHT22;50188;48.114;-1.388;2022-08-19T10:11:25;25.20;71.00
61765;DHT22;50188;48.114;-1.388;2022-08-19T10:13:52;25.10;71.10
61765;DHT22;50188;48.114;-1.388;2022-08-19T10:16:20;25.20;70.80
61765;DHT22;50188;48.114;-1.388;2022-08-19T10:18:48;25.30;70.90
61765;DHT22;50188;48.114;-1.388;2022-08-19T10:21:22;25.30;71.20
61765;DHT22;50188;48.114;-1.388;2022-08-19T10:23:50;25.40;70.40
61765;DHT22;50188;48.114;-1.388;2022-08-19T10:26:23;25.60;70.60
61765;DHT22;50188;48.114;-1.388;2022-08-19T10:28:49;25.70;70.40
61765;DHT22;50188;48.114;-1.388;2022-08-19T10:31:22;25.70;70.30
61765;DHT22;50188;48.114;-1.388;2022-08-19T10:33:50;25.60;70.00
61765;DHT22;50188;48.114;-1.388;2022-08-19T10:36:19;25.30;71.20
61765;DHT22;50188;48.114;-1.388;2022-08-19T10:38:48;25.10;71.70
61765;DHT22;50188;48.114;-1.388;2022-08-19T10:41:18;25.10;72.80
61765;DHT22;50188;48.114;-1.388;2022-08-19T10:43:44;25.00;73.90
61765;DHT22;50188;48.114;-1.388;2022-08-19T10:46:13;25.00;75.10
61765;DHT22;50188;48.114;-1.388;2022-08-19T10:48:40;25.00;75.30
61765;DHT22;50188;48.114;-1.388;2022-08-19T10:51:07;25.10;75.70
61765;DHT22;50188;48.114;-1.388;2022-08-19T10:53:53;25.10;75.60
61765;DHT22;50188;48.114;-1.388;2022-08-19T10:56:19;25.10;74.10
61765;DHT22;50188;48.114;-1.388;2022-08-19T10:59:05;25.10;74.50
61765;DHT22;50188;48.114;-1.388;2022-08-19T11:01:33;25.20;73.60
61765;DHT22;50188;48.114;-1.388;2022-08-19T11:04:01;25.20;72.30
61765;DHT22;50188;48.114;-1.388;2022-08-19T11:06:27;25.30;71.10
61765;DHT22;50188;48.114;-1.388;2022-08-19T11:08:54;25.50;71.50
61765;DHT22;50188;48.114;-1.388;2022-08-19T11:11:20;25.90;71.10
61765;DHT22;50188;48.114;-1.388;2022-08-19T11:13:47;26.20;69.90
61765;DHT22;50188;48.114;-1.388;2022-08-19T11:16:16;26.40;69.60
61765;DHT22;50188;48.114;-1.388;2022-08-19T11:18:45;26.30;69.40
61765;DHT22;50188;48.114;-1.388;2022-08-19T11:21:27;26.30;68.60
61765;DHT22;50188;48.114;-1.388;2022-08-19T11:23:56;26.10;68.90
61765;DHT22;50188;48.114;-1.388;2022-08-19T11:26:23;26.30;69.10
61765;DHT22;50188;48.114;-1.388;2022-08-19T11:28:50;26.30;69.30
61765;DHT22;50188;48.114;-1.388;2022-08-19T11:31:20;26.30;68.90
61765;DHT22;50188;48.114;-1.388;2022-08-19T11:33:46;26.30;69.10
61765;DHT22;50188;48.114;-1.388;2022-08-19T11:36:16;26.10;69.40
61765;DHT22;50188;48.114;-1.388;2022-08-19T11:38:42;26.00;68.60
61765;DHT22;50188;48.114;-1.388;2022-08-19T11:41:08;26.20;69.00
61765;DHT22;50188;48.114;-1.388;2022-08-19T11:43:35;26.10;68.70
61765;DHT22;50188;48.114;-1.388;2022-08-19T11:46:05;26.10;68.50
61765;DHT22;50188;48.114;-1.388;2022-08-19T11:48:32;26.40;68.10
61765;DHT22;50188;48.114;-1.388;2022-08-19T11:50:59;26.40;67.60
61765;DHT22;50188;48.114;-1.388;2022-08-19T11:53:24;26.30;67.20
61765;DHT22;50188;48.114;-1.388;2022-08-19T11:55:53;26.20;68.30
61765;DHT22;50188;48.114;-1.388;2022-08-19T11:58:21;26.10;68.80
61765;DHT22;50188;48.114;-1.388;2022-08-19T12:00:47;26.10;68.90
61765;DHT22;50188;48.114;-1.388;2022-08-19T12:03:14;26.00;69.00
61765;DHT22;50188;48.114;-1.388;2022-08-19T12:05:40;26.00;67.90
61765;DHT22;50188;48.114;-1.388;2022-08-19T12:08:07;25.80;68.50
61765;DHT22;50188;48.114;-1.388;2022-08-19T12:10:34;25.70;69.40
61765;DHT22;50188;48.114;-1.388;2022-08-19T12:13:00;25.80;69.80
61765;DHT22;50188;48.114;-1.388;2022-08-19T12:15:27;25.70;69.60
61765;DHT22;50188;48.114;-1.388;2022-08-19T12:17:56;25.50;70.20
61765;DHT22;50188;48.114;-1.388;2022-08-19T12:20:23;25.30;70.50
61765;DHT22;50188;48.114;-1.388;2022-08-19T12:22:49;25.30;71.60
61765;DHT22;50188;48.114;-1.388;2022-08-19T12:25:16;25.10;72.20
61765;DHT22;50188;48.114;-1.388;2022-08-19T12:27:42;25.00;72.60
61765;DHT22;50188;48.114;-1.388;2022-08-19T12:30:11;25.00;72.20
61765;DHT22;50188;48.114;-1.388;2022-08-19T12:32:37;24.90;74.00
61765;DHT22;50188;48.114;-1.388;2022-08-19T12:35:03;25.00;74.60
61765;DHT22;50188;48.114;-1.388;2022-08-19T12:37:29;24.90;76.70
61765;DHT22;50188;48.114;-1.388;2022-08-19T12:39:57;24.80;77.40
61765;DHT22;50188;48.114;-1.388;2022-08-19T12:42:23;24.80;77.30
61765;DHT22;50188;48.114;-1.388;2022-08-19T12:44:49;24.70;78.90
61765;DHT22;50188;48.114;-1.388;2022-08-19T12:47:17;24.60;78.90
61765;DHT22;50188;48.114;-1.388;2022-08-19T12:49:43;24.40;79.00
61765;DHT22;50188;48.114;-1.388;2022-08-19T12:52:10;24.40;80.10
61765;DHT22;50188;48.114;-1.388;2022-08-19T12:54:36;24.20;80.60
61765;DHT22;50188;48.114;-1.388;2022-08-19T12:57:06;24.20;81.20
61765;DHT22;50188;48.114;-1.388;2022-08-19T12:59:34;24.00;83.80
61765;DHT22;50188;48.114;-1.388;2022-08-19T13:02:03;24.00;84.30
61765;DHT22;50188;48.114;-1.388;2022-08-19T13:04:32;24.10;83.00
61765;DHT22;50188;48.114;-1.388;2022-08-19T13:07:00;24.40;83.10
61765;DHT22;50188;48.114;-1.388;2022-08-19T13:09:26;24.50;83.70
61765;DHT22;50188;48.114;-1.388;2022-08-19T13:11:52;24.60;83.20
61765;DHT22;50188;48.114;-1.388;2022-08-19T13:14:18;24.80;81.80
61765;DHT22;50188;48.114;-1.388;2022-08-19T13:16:44;24.90;83.30
61765;DHT22;50188;48.114;-1.388;2022-08-19T13:19:10;24.90;82.30
61765;DHT22;50188;48.114;-1.388;2022-08-19T13:21:37;24.80;82.00
61765;DHT22;50188;48.114;-1.388;2022-08-19T13:24:04;24.80;81.70
61765;DHT22;50188;48.114;-1.388;2022-08-19T13:26:30;24.90;81.80
61765;DHT22;50188;48.114;-1.388;2022-08-19T13:28:59;24.90;81.70
61765;DHT22;50188;48.114;-1.388;2022-08-19T13:31:45;24.90;82.10
61765;DHT22;50188;48.114;-1.388;2022-08-19T13:34:34;24.90;82.00
61765;DHT22;50188;48.114;-1.388;2022-08-19T13:37:02;24.90;82.20
61765;DHT22;50188;48.114;-1.388;2022-08-19T13:39:30;24.80;81.60
61765;DHT22;50188;48.114;-1.388;2022-08-19T13:41:58;24.60;81.40
61765;DHT22;50188;48.114;-1.388;2022-08-19T13:44:26;24.60;81.80
61765;DHT22;50188;48.114;-1.388;2022-08-19T13:46:59;24.60;82.00
61765;DHT22;50188;48.114;-1.388;2022-08-19T13:49:27;24.60;82.40
61765;DHT22;50188;48.114;-1.388;2022-08-19T13:51:55;24.50;82.60
61765;DHT22;50188;48.114;-1.388;2022-08-19T13:54:21;24.50;82.30
61765;DHT22;50188;48.114;-1.388;2022-08-19T13:56:47;24.60;82.50
61765;DHT22;50188;48.114;-1.388;2022-08-19T13:59:14;24.50;82.60
61765;DHT22;50188;48.114;-1.388;2022-08-19T14:01:40;24.50;82.90
61765;DHT22;50188;48.114;-1.388;2022-08-19T14:04:07;24.40;82.70
61765;DHT22;50188;48.114;-1.388;2022-08-19T14:06:33;24.20;82.40
61765;DHT22;50188;48.114;-1.388;2022-08-19T14:09:08;24.30;83.00
61765;DHT22;50188;48.114;-1.388;2022-08-19T14:15:10;24.20;82.60
61765;DHT22;50188;48.114;-1.388;2022-08-19T14:17:41;24.20;82.90
61765;DHT22;50188;48.114;-1.388;2022-08-19T14:20:09;24.10;83.10
61765;DHT22;50188;48.114;-1.388;2022-08-19T14:22:37;23.60;81.30
61765;DHT22;50188;48.114;-1.388;2022-08-19T14:25:05;23.40;80.60
61765;DHT22;50188;48.114;-1.388;2022-08-19T14:27:34;22.90;82.00
61765;DHT22;50188;48.114;-1.388;2022-08-19T14:29:59;22.70;83.50
61765;DHT22;50188;48.114;-1.388;2022-08-19T14:32:25;22.60;83.30
61765;DHT22;50188;48.114;-1.388;2022-08-19T14:34:52;22.30;84.50
61765;DHT22;50188;48.114;-1.388;2022-08-19T14:37:18;22.50;85.80
61765;DHT22;50188;48.114;-1.388;2022-08-19T14:39:44;22.60;86.10
61765;DHT22;50188;48.114;-1.388;2022-08-19T14:42:11;22.60;86.00
61765;DHT22;50188;48.114;-1.388;2022-08-19T14:44:37;22.70;85.40
61765;DHT22;50188;48.114;-1.388;2022-08-19T14:47:02;22.70;85.80
61765;DHT22;50188;48.114;-1.388;2022-08-19T14:49:28;22.60;84.80
61765;DHT22;50188;48.114;-1.388;2022-08-19T14:51:54;22.50;85.40
61765;DHT22;50188;48.114;-1.388;2022-08-19T14:54:20;22.50;85.10
61765;DHT22;50188;48.114;-1.388;2022-08-19T14:56:46;22.40;85.00
61765;DHT22;50188;48.114;-1.388;2022-08-19T14:59:12;22.50;85.10
61765;DHT22;50188;48.114;-1.388;2022-08-19T15:01:38;22.20;85.40
61765;DHT22;50188;48.114;-1.388;2022-08-19T15:04:04;21.90;86.70
61765;DHT22;50188;48.114;-1.388;2022-08-19T15:06:29;22.00;86.00
61765;DHT22;50188;48.114;-1.388;2022-08-19T15:08:55;21.90;86.60
61765;DHT22;50188;48.114;-1.388;2022-08-19T15:11:24;21.60;86.70
61765;DHT22;50188;48.114;-1.388;2022-08-19T15:13:51;21.80;86.90
61765;DHT22;50188;48.114;-1.388;2022-08-19T15:16:17;22.00;86.10
61765;DHT22;50188;48.114;-1.388;2022-08-19T15:18:44;22.10;85.90
61765;DHT22;50188;48.114;-1.388;2022-08-19T15:21:12;22.10;86.10
61765;DHT22;50188;48.114;-1.388;2022-08-19T15:23:39;22.20;85.30
61765;DHT22;50188;48.114;-1.388;2022-08-19T15:26:05;22.40;86.00
61765;DHT22;50188;48.114;-1.388;2022-08-19T15:28:31;22.40;86.00
61765;DHT22;50188;48.114;-1.388;2022-08-19T15:30:58;22.40;85.40
61765;DHT22;50188;48.114;-1.388;2022-08-19T15:33:24;22.50;84.50
61765;DHT22;50188;48.114;-1.388;2022-08-19T15:35:50;22.50;83.90
61765;DHT22;50188;48.114;-1.388;2022-08-19T15:38:16;22.50;84.10